Time;durP1;ratioP1;P1;durP2;ratioP2;P2;SDS_P1;SDS_P2;PMS_P1;PMS_P2;Temp;Humidity;BMP_temperature;BMP_pressure;BME280_temperature;BME280_humidity;BME280_pressure;Samples;Min_cycle;Max_cycle;Signal;HPM_P1;HPM_P2
2021/09/16 00:00:39;;;;;;;7.65;3.63;;;18.70;99.90;;;;;;5069617;28;20218;-73
2021/09/16 00:03:05;;;;;;;1.95;1.85;;;18.60;99.90;;;;;;5069511;28;20153;-73
2021/09/16 00:05:30;;;;;;;6.05;2.90;;;18.60;99.90;;;;;;5069671;28;20222;-73
2021/09/16 00:07:56;;;;;;;2.35;2.08;;;18.50;99.90;;;;;;5051440;28;20195;-73
2021/09/16 00:10:22;;;;;;;3.70;3.30;;;18.50;99.90;;;;;;5069350;28;20176;-73
2021/09/16 00:12:48;;;;;;;8.27;2.28;;;18.50;99.90;;;;;;5069339;28;20165;-73
2021/09/16 00:15:14;;;;;;;4.32;1.88;;;18.50;99.90;;;;;;5051121;28;20531;-73
2021/09/16 00:17:40;;;;;;;2.33;2.15;;;18.50;99.90;;;;;;5052246;28;20177;-73
2021/09/16 00:20:07;;;;;;;2.47;1.35;;;18.60;99.90;;;;;;5053037;28;20176;-73
2021/09/16 00:22:33;;;;;;;1.98;1.77;;;18.60;99.90;;;;;;5053319;28;20207;-74
2021/09/16 00:24:59;;;;;;;6.60;2.00;;;18.60;99.90;;;;;;5053455;28;20195;-76
2021/09/16 00:27:25;;;;;;;1.35;1.30;;;18.60;99.90;;;;;;5070792;28;20165;-74
2021/09/16 00:29:51;;;;;;;2.83;2.00;;;18.40;99.90;;;;;;5052402;28;20240;-74
2021/09/16 00:32:17;;;;;;;1.67;1.58;;;18.40;99.90;;;;;;5070152;28;20207;-74
2021/09/16 00:34:43;;;;;;;3.70;1.73;;;18.30;99.90;;;;;;5069320;28;20196;-74
2021/09/16 00:37:09;;;;;;;2.53;2.30;;;18.20;99.90;;;;;;5068635;28;20220;-74
2021/09/16 00:39:35;;;;;;;2.70;2.50;;;18.30;99.90;;;;;;5050536;28;20226;-74
2021/09/16 00:42:01;;;;;;;2.25;1.52;;;18.30;99.90;;;;;;5068665;28;20223;-74
2021/09/16 00:44:27;;;;;;;3.40;1.90;;;18.20;99.90;;;;;;5068812;28;20169;-74
2021/09/16 00:46:53;;;;;;;2.72;1.85;;;18.20;99.90;;;;;;5068706;28;20164;-74
2021/09/16 00:49:18;;;;;;;1.95;1.85;;;18.30;99.90;;;;;;5068281;28;20191;-74
2021/09/16 00:51:47;;;;;;;1.70;1.60;;;18.30;99.90;;;;;;5050575;28;20232;-74
2021/09/16 00:54:15;;;;;;;13.55;1.05;;;18.20;99.90;;;;;;5068560;28;20199;-74
2021/09/16 00:56:44;;;;;;;1.17;0.80;;;18.20;99.90;;;;;;5068581;28;20149;-74
2021/09/16 00:59:14;;;;;;;2.13;1.90;;;18.10;99.90;;;;;;5050893;28;20215;-75
2021/09/16 01:01:40;;;;;;;4.53;1.83;;;18.10;99.90;;;;;;5068341;28;20193;-75
2021/09/16 01:04:06;;;;;;;2.78;2.15;;;18.10;99.90;;;;;;5068374;28;20165;-74
2021/09/16 01:06:32;;;;;;;1.50;1.40;;;18.00;99.90;;;;;;5068401;28;20180;-74
2021/09/16 01:08:58;;;;;;;2.35;1.88;;;18.00;99.90;;;;;;5050307;28;20195;-74
2021/09/16 01:11:24;;;;;;;2.30;1.70;;;17.90;99.90;;;;;;5067713;28;20207;-73
2021/09/16 01:13:50;;;;;;;1.30;1.25;;;17.90;99.90;;;;;;5050261;28;20220;-74
2021/09/16 01:16:16;;;;;;;1.02;1.02;;;18.00;99.90;;;;;;5050028;28;20176;-74
2021/09/16 01:18:42;;;;;;;2.25;2.05;;;18.00;99.90;;;;;;5068070;28;20168;-74
2021/09/16 01:21:09;;;;;;;1.40;1.30;;;18.10;99.90;;;;;;5067979;28;20219;-74
2021/09/16 01:23:35;;;;;;;2.08;1.60;;;18.20;99.90;;;;;;5068067;28;20161;-74
2021/09/16 01:26:01;;;;;;;2.42;2.28;;;18.10;99.90;;;;;;5067909;28;20161;-74
2021/09/16 01:28:27;;;;;;;3.33;1.77;;;18.10;99.90;;;;;;5067819;28;20188;-74
2021/09/16 01:30:52;;;;;;;1.55;1.45;;;18.10;99.90;;;;;;5049637;28;20200;-74
2021/09/16 01:33:18;;;;;;;1.23;1.23;;;18.10;99.90;;;;;;5067599;28;20189;-74
2021/09/16 01:35:44;;;;;;;1.27;1.27;;;18.10;99.90;;;;;;5049689;28;20175;-74
2021/09/16 01:38:10;;;;;;;1.20;1.08;;;18.20;99.90;;;;;;5067691;28;20200;-74
2021/09/16 01:40:36;;;;;;;3.08;2.75;;;18.30;99.90;;;;;;5067734;28;20215;-75
2021/09/16 01:43:02;;;;;;;4.18;2.70;;;18.40;99.90;;;;;;5067636;28;20550;-74
2021/09/16 01:45:29;;;;;;;1.98;1.65;;;18.30;99.90;;;;;;5049622;28;20169;-74
2021/09/16 01:47:55;;;;;;;3.25;2.95;;;18.30;99.90;;;;;;5049488;28;20176;-74
2021/09/16 01:50:24;;;;;;;2.20;2.10;;;18.30;99.90;;;;;;5067057;28;20290;-74
2021/09/16 01:52:51;;;;;;;2.78;1.85;;;18.40;99.90;;;;;;5067304;28;20161;-75
2021/09/16 01:55:18;;;;;;;0.80;0.80;;;18.50;99.90;;;;;;5049227;28;20188;-74
2021/09/16 01:57:45;;;;;;;15.52;2.67;;;18.60;99.90;;;;;;5067302;28;20188;-74
2021/09/16 02:00:12;;;;;;;1.48;1.38;;;18.60;99.90;;;;;;5067431;28;20217;-74
2021/09/16 02:02:38;;;;;;;1.38;1.27;;;18.60;99.90;;;;;;5067401;28;20653;-74
2021/09/16 02:05:05;;;;;;;1.58;1.48;;;18.70;99.90;;;;;;5067456;28;20160;-74
2021/09/16 02:07:31;;;;;;;1.80;1.60;;;18.90;99.90;;;;;;5067726;28;20157;-75
2021/09/16 02:09:57;;;;;;;2.22;1.98;;;19.00;99.90;;;;;;5067623;28;20164;-74
2021/09/16 02:12:23;;;;;;;5.28;2.60;;;19.30;99.90;;;;;;5049334;28;20246;-75
2021/09/16 02:14:49;;;;;;;1.85;1.65;;;19.50;99.90;;;;;;5049163;28;20197;-74
2021/09/16 02:17:15;;;;;;;5.32;1.85;;;19.50;99.90;;;;;;5049353;28;20168;-75
2021/09/16 02:19:41;;;;;;;1.73;1.60;;;19.50;99.90;;;;;;5049187;28;20194;-74
2021/09/16 02:22:07;;;;;;;2.58;1.63;;;19.60;99.90;;;;;;5067297;28;20195;-74
2021/09/16 02:24:32;;;;;;;2.03;1.33;;;19.80;99.90;;;;;;5071212;28;20236;-74
2021/09/16 02:26:58;;;;;;;4.47;2.50;;;19.90;99.90;;;;;;5071258;28;20161;-75
2021/09/16 02:29:24;;;;;;;1.92;0.88;;;20.30;99.90;;;;;;5053040;28;20233;-74
2021/09/16 02:31:50;;;;;;;2.67;2.47;;;20.90;99.90;;;;;;5071239;28;20188;-75
2021/09/16 02:34:16;;;;;;;2.65;1.80;;;21.30;99.90;;;;;;5053231;28;20203;-75
2021/09/16 02:36:42;;;;;;;2.08;1.27;;;21.40;99.90;;;;;;5053184;28;20244;-75
2021/09/16 02:39:08;;;;;;;7.95;2.78;;;21.60;99.90;;;;;;5053095;28;20169;-74
2021/09/16 02:41:34;;;;;;;0.85;0.85;;;21.50;99.90;;;;;;5053780;28;20196;-75
2021/09/16 02:44:00;;;;;;;1.00;0.98;;;21.40;99.90;;;;;;5053804;28;20262;-74
2021/09/16 02:46:27;;;;;;;1.58;1.48;;;19.40;99.90;;;;;;5053584;28;20196;-74
2021/09/16 02:48:52;;;;;;;2.45;1.65;;;18.30;99.90;;;;;;5052821;28;20192;-74
2021/09/16 02:51:18;;;;;;;0.50;0.50;;;18.00;99.90;;;;;;5069199;28;20224;-75
2021/09/16 02:53:44;;;;;;;1.80;1.52;;;17.70;99.90;;;;;;5050135;28;20200;-74
2021/09/16 02:56:10;;;;;;;1.10;1.00;;;17.60;99.90;;;;;;5070583;28;20157;-74
2021/09/16 02:58:36;;;;;;;1.17;1.05;;;17.50;99.90;;;;;;5070630;28;20156;-74
2021/09/16 03:01:02;;;;;;;0.75;0.75;;;17.70;99.90;;;;;;5052458;28;20218;-77
2021/09/16 03:03:28;;;;;;;1.10;0.95;;;17.70;99.90;;;;;;5070628;28;20164;-75
2021/09/16 03:05:54;;;;;;;1.20;1.10;;;17.80;99.90;;;;;;5052421;28;20168;-77
2021/09/16 03:08:20;;;;;;;1.15;1.05;;;17.80;99.90;;;;;;5070452;28;20171;-74
2021/09/16 03:10:45;;;;;;;1.75;0.68;;;17.90;99.90;;;;;;5070374;28;20188;-74
2021/09/16 03:13:11;;;;;;;0.65;0.65;;;17.90;99.90;;;;;;5052450;28;20203;-75
2021/09/16 03:15:38;;;;;;;0.68;0.68;;;17.90;99.90;;;;;;5070531;28;20183;-75
2021/09/16 03:18:05;;;;;;;0.73;0.73;;;17.90;99.90;;;;;;5070358;28;20269;-74
2021/09/16 03:20:30;;;;;;;1.17;0.90;;;17.80;99.90;;;;;;5052037;28;20161;-74
2021/09/16 03:22:56;;;;;;;0.57;0.55;;;17.60;99.90;;;;;;5070316;28;20244;-75
2021/09/16 03:25:22;;;;;;;1.00;0.88;;;17.50;99.90;;;;;;5070314;28;20190;-75
2021/09/16 03:27:48;;;;;;;1.25;1.25;;;17.50;99.90;;;;;;5070165;28;20165;-75
2021/09/16 03:30:14;;;;;;;1.02;1.02;;;17.50;99.90;;;;;;5069865;28;20226;-75
2021/09/16 03:32:42;;;;;;;1.83;1.40;;;17.60;99.90;;;;;;5051814;28;20276;-75
2021/09/16 03:35:08;;;;;;;1.38;1.20;;;17.70;99.90;;;;;;5069432;28;20180;-75
2021/09/16 03:37:34;;;;;;;1.05;0.88;;;17.60;99.90;;;;;;5069812;28;20256;-75
2021/09/16 03:40:01;;;;;;;0.47;0.47;;;17.60;99.90;;;;;;5051573;28;20161;-75
2021/09/16 03:42:27;;;;;;;0.25;0.25;;;17.60;99.90;;;;;;5069597;28;20231;-76
2021/09/16 03:44:52;;;;;;;0.85;0.85;;;17.70;99.90;;;;;;5069609;28;20169;-76
2021/09/16 03:47:18;;;;;;;1.27;1.25;;;17.60;99.90;;;;;;5051723;28;20180;-76
2021/09/16 03:49:44;;;;;;;1.52;1.42;;;17.50;99.90;;;;;;5069405;28;20240;-75
2021/09/16 03:52:11;;;;;;;0.57;0.57;;;17.50;99.90;;;;;;5051360;28;20214;-75
2021/09/16 03:54:38;;;;;;;0.93;0.93;;;17.50;99.90;;;;;;5069489;28;20195;-74
2021/09/16 03:57:04;;;;;;;0.90;0.70;;;17.50;99.90;;;;;;5069434;28;20156;-74
2021/09/16 03:59:31;;;;;;;0.90;0.90;;;17.50;99.90;;;;;;5051327;28;20165;-74
2021/09/16 04:01:57;;;;;;;0.30;0.30;;;17.50;99.90;;;;;;5069080;28;20212;-75
2021/09/16 04:04:23;;;;;;;2.03;1.15;;;17.50;99.90;;;;;;5069251;28;20165;-75
2021/09/16 04:06:50;;;;;;;0.57;0.55;;;17.40;99.90;;;;;;5069207;28;20165;-76
2021/09/16 04:09:16;;;;;;;2.80;0.80;;;17.40;99.90;;;;;;5050875;28;20169;-77
2021/09/16 04:11:42;;;;;;;0.70;0.68;;;17.40;99.90;;;;;;5068790;28;20283;-75
2021/09/16 04:14:08;;;;;;;0.45;0.45;;;17.40;99.90;;;;;;5050940;28;20216;-77
2021/09/16 04:16:34;;;;;;;2.25;0.73;;;17.40;99.90;;;;;;5069032;28;20179;-75
2021/09/16 04:18:59;;;;;;;1.20;1.13;;;17.30;99.90;;;;;;5068967;28;20161;-74
2021/09/16 04:21:26;;;;;;;0.13;0.13;;;17.40;99.90;;;;;;5050522;28;20196;-74
2021/09/16 04:23:51;;;;;;;1.20;0.50;;;17.40;99.90;;;;;;5068599;28;20243;-75
2021/09/16 04:26:17;;;;;;;0.43;0.43;;;17.40;99.90;;;;;;5068549;28;20161;-75
2021/09/16 04:28:43;;;;;;;0.43;0.43;;;17.50;99.90;;;;;;5068669;28;20238;-75
2021/09/16 04:31:10;;;;;;;0.25;0.25;;;17.60;99.90;;;;;;5068491;28;20491;-74
2021/09/16 04:33:36;;;;;;;1.27;1.17;;;17.80;99.90;;;;;;5050584;28;20269;-74
2021/09/16 04:36:03;;;;;;;0.55;0.55;;;18.10;99.90;;;;;;5050548;28;20184;-75
2021/09/16 04:38:29;;;;;;;0.77;0.77;;;18.40;99.90;;;;;;5068302;28;20172;-75
2021/09/16 04:40:55;;;;;;;0.85;0.85;;;18.30;99.90;;;;;;5068331;28;20192;-75
2021/09/16 04:43:21;;;;;;;0.75;0.73;;;18.30;99.90;;;;;;5062901;28;20183;-75
2021/09/16 04:45:47;;;;;;;0.32;0.30;;;18.40;99.90;;;;;;5087665;28;20188;-76
2021/09/16 04:48:14;;;;;;;0.35;0.35;;;18.60;99.90;;;;;;5070152;28;20168;-76
2021/09/16 04:50:40;;;;;;;0.90;0.90;;;18.60;99.90;;;;;;5087864;28;20234;-76
2021/09/16 04:53:06;;;;;;;0.73;0.73;;;18.60;99.90;;;;;;5088182;28;20190;-76
2021/09/16 04:55:32;;;;;;;0.32;0.20;;;18.80;99.90;;;;;;5070133;28;20172;-77
2021/09/16 04:57:58;;;;;;;0.50;0.38;;;18.70;99.90;;;;;;5088294;28;20593;-74
2021/09/16 05:00:24;;;;;;;0.55;0.52;;;18.50;99.90;;;;;;5069724;28;20706;-75
2021/09/16 05:02:50;;;;;;;1.70;1.60;;;18.40;99.90;;;;;;5089513;28;20673;-77
2021/09/16 05:05:16;;;;;;;0.70;0.70;;;18.40;99.90;;;;;;5088747;28;20168;-75
2021/09/16 05:07:42;;;;;;;1.10;0.82;;;18.40;99.90;;;;;;5070203;28;20628;-76
2021/09/16 05:10:09;;;;;;;0.93;0.35;;;18.50;99.90;;;;;;5069672;28;20188;-75
2021/09/16 05:12:35;;;;;;;1.15;0.77;;;18.80;99.90;;;;;;5069486;28;20230;-76
2021/09/16 05:15:01;;;;;;;0.88;0.88;;;19.00;99.90;;;;;;5086303;28;20587;-75
2021/09/16 05:17:26;;;;;;;5.93;1.30;;;19.20;99.90;;;;;;5069524;28;20159;-75
2021/09/16 05:19:53;;;;;;;1.02;0.85;;;19.00;99.90;;;;;;5087544;28;20513;-75
2021/09/16 05:22:19;;;;;;;0.20;0.20;;;19.00;99.90;;;;;;5086234;28;20251;-75
2021/09/16 05:24:45;;;;;;;0.80;0.52;;;19.00;99.90;;;;;;5087645;28;20160;-73
2021/09/16 05:27:11;;;;;;;1.23;1.17;;;19.00;99.90;;;;;;5087390;28;20164;-74
2021/09/16 05:29:37;;;;;;;1.15;0.95;;;19.20;99.90;;;;;;5087711;28;20225;-74
2021/09/16 05:32:03;;;;;;;3.30;0.98;;;19.20;99.90;;;;;;5087514;28;20199;-75
2021/09/16 05:34:29;;;;;;;0.52;0.52;;;19.20;99.90;;;;;;5086295;28;20244;-76
2021/09/16 05:36:55;;;;;;;1.15;0.75;;;19.30;99.90;;;;;;5087424;28;20156;-75
2021/09/16 05:39:20;;;;;;;0.10;0.10;;;19.30;99.90;;;;;;5058297;28;20168;-74
2021/09/16 05:41:46;;;;;;;0.15;0.15;;;19.30;99.90;;;;;;5060518;28;20205;-78
2021/09/16 05:44:12;;;;;;;0.10;0.10;;;19.30;99.90;;;;;;5067509;28;20180;-76
2021/09/16 05:46:38;;;;;;;0.95;0.95;;;19.30;99.90;;;;;;5067325;28;20195;-76
2021/09/16 05:49:04;;;;;;;0.77;0.77;;;19.20;99.90;;;;;;5067427;28;20224;-76
2021/09/16 05:51:30;;;;;;;0.30;0.30;;;19.30;99.90;;;;;;5066892;28;20235;-77
2021/09/16 05:53:56;;;;;;;1.08;0.98;;;19.40;99.90;;;;;;5067165;28;20200;-76
2021/09/16 05:56:22;;;;;;;0.35;0.30;;;19.50;99.90;;;;;;5050400;28;20571;-76
2021/09/16 05:58:48;;;;;;;2.03;0.55;;;19.40;99.90;;;;;;5073873;28;20164;-77
2021/09/16 06:01:14;;;;;;;0.95;0.95;;;19.60;99.90;;;;;;5055703;28;20658;-76
2021/09/16 06:03:40;;;;;;;0.10;0.10;;;19.80;99.90;;;;;;5056115;28;20172;-75
2021/09/16 06:06:06;;;;;;;1.67;1.58;;;20.00;99.90;;;;;;5055675;28;20202;-75
2021/09/16 06:08:32;;;;;;;0.93;0.73;;;19.90;99.90;;;;;;5073917;28;20228;-75
2021/09/16 06:10:58;;;;;;;0.77;0.70;;;20.00;99.90;;;;;;5055550;28;20196;-76
2021/09/16 06:13:24;;;;;;;1.20;0.65;;;20.10;99.90;;;;;;5073709;28;20192;-76
2021/09/16 06:15:50;;;;;;;1.55;1.10;;;20.20;99.90;;;;;;5055995;28;20172;-78
2021/09/16 06:18:16;;;;;;;1.85;1.75;;;20.20;99.90;;;;;;5073823;28;20157;-75
2021/09/16 06:20:42;;;;;;;1.10;1.05;;;20.40;99.90;;;;;;5073611;28;20570;-76
2021/09/16 06:23:08;;;;;;;1.98;0.77;;;20.40;99.90;;;;;;5055633;28;20257;-76
2021/09/16 06:25:34;;;;;;;1.40;1.38;;;20.50;99.90;;;;;;5073708;28;20252;-77
2021/09/16 06:28:00;;;;;;;0.20;0.20;;;20.60;99.90;;;;;;5073772;28;20589;-77
2021/09/16 06:30:26;;;;;;;0.65;0.63;;;20.70;99.90;;;;;;5055736;28;20164;-77
2021/09/16 06:32:52;;;;;;;0.60;0.60;;;20.70;99.90;;;;;;5073660;28;20176;-78
2021/09/16 06:35:20;;;;;;;1.35;0.95;;;20.60;99.90;;;;;;5073465;28;20191;-77
2021/09/16 06:37:46;;;;;;;1.15;1.05;;;20.70;99.90;;;;;;5073688;28;20184;-78
2021/09/16 06:40:13;;;;;;;1.10;1.00;;;20.80;99.90;;;;;;5073558;28;20168;-78
2021/09/16 06:42:40;;;;;;;1.50;1.25;;;20.50;99.90;;;;;;5073584;28;20286;-78
2021/09/16 06:45:06;;;;;;;0.70;0.60;;;20.50;99.90;;;;;;5055462;28;20227;-78
2021/09/16 06:47:32;;;;;;;1.45;1.20;;;20.40;99.90;;;;;;5074228;28;20266;-78
2021/09/16 06:49:58;;;;;;;2.20;1.20;;;20.50;99.90;;;;;;5074770;28;20225;-77
2021/09/16 06:52:24;;;;;;;0.70;0.30;;;20.50;99.90;;;;;;5092961;28;20199;-78
2021/09/16 06:54:51;;;;;;;4.28;1.15;;;20.70;99.90;;;;;;5092890;28;20183;-79
2021/09/16 06:57:19;;;;;;;1.63;1.52;;;20.90;99.90;;;;;;5093013;28;20223;-78
2021/09/16 06:59:45;;;;;;;0.98;0.98;;;21.10;99.90;;;;;;5074634;28;20152;-79
2021/09/16 07:02:11;;;;;;;1.13;0.98;;;21.60;99.90;;;;;;5074589;28;20220;-79
2021/09/16 07:04:38;;;;;;;1.00;0.95;;;22.40;99.90;;;;;;5075008;28;20239;-77
2021/09/16 07:07:04;;;;;;;1.15;1.15;;;22.40;99.90;;;;;;5093390;28;20179;-77
2021/09/16 07:09:31;;;;;;;0.98;0.98;;;22.60;99.90;;;;;;5089888;28;20228;-78
2021/09/16 07:11:57;;;;;;;0.82;0.82;;;22.70;99.90;;;;;;5088939;28;20210;-78
2021/09/16 07:14:25;;;;;;;0.80;0.75;;;22.50;99.90;;;;;;5071845;28;20191;-79
2021/09/16 07:16:51;;;;;;;2.17;1.85;;;22.70;99.90;;;;;;5090216;28;20185;-78
2021/09/16 07:19:17;;;;;;;1.13;1.13;;;22.80;99.90;;;;;;5090373;28;20217;-79
2021/09/16 07:21:43;;;;;;;1.05;1.05;;;22.80;99.90;;;;;;5090157;28;20198;-78
2021/09/16 07:24:10;;;;;;;0.95;0.90;;;22.70;99.90;;;;;;5090038;28;20215;-78
2021/09/16 07:26:36;;;;;;;1.77;0.43;;;22.80;99.90;;;;;;5089829;28;20164;-77
2021/09/16 07:29:03;;;;;;;1.67;1.02;;;23.10;99.90;;;;;;5090118;28;20240;-78
2021/09/16 07:31:29;;;;;;;1.05;0.93;;;23.40;99.90;;;;;;5073187;28;20191;-78
2021/09/16 07:33:57;;;;;;;5.00;1.08;;;23.40;99.90;;;;;;5091667;28;20183;-78
2021/09/16 07:36:23;;;;;;;1.10;1.00;;;23.80;99.90;;;;;;5090014;28;20175;-77
2021/09/16 07:38:49;;;;;;;0.85;0.85;;;24.50;99.90;;;;;;5064924;28;20169;-78
2021/09/16 07:41:16;;;;;;;0.45;0.45;;;24.30;99.90;;;;;;5068204;28;20202;-77
2021/09/16 07:43:43;;;;;;;1.45;1.15;;;24.00;99.90;;;;;;5065448;28;20260;-76
2021/09/16 07:46:09;;;;;;;1.17;1.15;;;23.30;99.90;;;;;;5084757;28;20183;-77
2021/09/16 07:48:35;;;;;;;1.20;1.13;;;23.10;99.90;;;;;;5072910;28;20182;-77
2021/09/16 07:51:01;;;;;;;1.20;0.90;;;22.90;99.90;;;;;;5063407;28;20603;-77
2021/09/16 07:53:29;;;;;;;1.20;0.93;;;22.80;99.90;;;;;;5051341;28;20222;-77
2021/09/16 07:55:55;;;;;;;1.25;0.98;;;22.80;99.90;;;;;;5051565;28;20184;-78
2021/09/16 07:58:22;;;;;;;1.95;1.50;;;23.00;99.90;;;;;;5069346;28;20199;-78
2021/09/16 08:00:48;;;;;;;1.75;1.35;;;23.00;99.90;;;;;;5073436;28;20170;-79
2021/09/16 08:03:14;;;;;;;1.00;0.98;;;23.00;99.90;;;;;;5088200;28;20164;-77
2021/09/16 08:05:40;;;;;;;1.23;1.10;;;23.40;99.90;;;;;;5073095;28;20163;-76
2021/09/16 08:08:06;;;;;;;0.75;0.75;;;23.90;99.90;;;;;;5090434;28;20195;-77
2021/09/16 08:10:32;;;;;;;0.88;0.88;;;24.30;99.90;;;;;;5091378;28;20163;-77
2021/09/16 08:12:58;;;;;;;1.05;0.98;;;24.50;99.90;;;;;;5091813;28;20159;-76
2021/09/16 08:15:24;;;;;;;1.00;0.70;;;25.20;99.90;;;;;;5091218;28;20194;-77
2021/09/16 08:17:50;;;;;;;0.52;0.30;;;25.40;99.90;;;;;;5091594;28;20202;-77
2021/09/16 08:20:16;;;;;;;1.05;0.70;;;25.40;99.90;;;;;;5071981;28;20179;-77
2021/09/16 08:22:44;;;;;;;0.85;0.85;;;25.90;99.90;;;;;;5091178;28;20190;-77
2021/09/16 08:25:11;;;;;;;0.93;0.63;;;26.70;99.90;;;;;;5090460;28;20183;-77
2021/09/16 08:27:38;;;;;;;0.93;0.60;;;27.60;99.90;;;;;;5088569;28;20676;-76
2021/09/16 08:30:05;;;;;;;0.45;0.45;;;27.70;99.90;;;;;;5088805;28;20155;-76
2021/09/16 08:32:32;;;;;;;0.90;0.90;;;27.50;99.90;;;;;;5070663;28;20194;-76
2021/09/16 08:34:57;;;;;;;1.25;0.90;;;27.50;99.90;;;;;;5070569;28;20191;-76
2021/09/16 08:37:23;;;;;;;0.73;0.73;;;28.20;99.90;;;;;;5059173;28;20227;-78
2021/09/16 08:39:49;;;;;;;2.55;0.73;;;27.80;99.90;;;;;;5050274;28;20601;-75
2021/09/16 08:42:16;;;;;;;2.20;1.10;;;27.90;99.90;;;;;;5068478;28;20206;-74
2021/09/16 08:44:43;;;;;;;1.00;0.85;;;27.60;99.90;;;;;;5050357;28;20176;-75
2021/09/16 08:47:13;;;;;;;0.60;0.60;;;27.20;99.90;;;;;;5067912;28;20192;-75
2021/09/16 08:49:39;;;;;;;0.10;0.10;;;26.50;99.90;;;;;;5050158;28;20219;-75
2021/09/16 08:52:05;;;;;;;0.52;0.52;;;26.90;99.90;;;;;;5050153;28;20198;-76
2021/09/16 08:54:31;;;;;;;2.63;1.08;;;27.00;99.90;;;;;;5050222;28;20199;-75
2021/09/16 08:57:00;;;;;;;0.68;0.68;;;26.80;99.90;;;;;;5049802;28;20881;-75
2021/09/16 08:59:25;;;;;;;0.75;0.50;;;27.50;99.90;;;;;;5068078;28;20156;-75
2021/09/16 09:01:51;;;;;;;6.80;0.73;;;28.40;99.90;;;;;;5050098;28;20215;-75
2021/09/16 09:04:17;;;;;;;0.30;0.30;;;28.30;99.90;;;;;;5068080;28;20206;-75
2021/09/16 09:06:43;;;;;;;0.45;0.45;;;28.60;99.90;;;;;;5049791;28;20810;-75
2021/09/16 09:09:19;;;;;;;1.08;1.00;;;26.80;99.90;;;;;;5068045;28;20157;-77
2021/09/16 09:11:49;;;;;;;0.57;0.40;;;26.50;99.90;;;;;;5067873;28;20160;-75
2021/09/16 09:14:25;;;;;;;0.68;0.65;;;26.30;99.90;;;;;;5067703;28;20245;-75
2021/09/16 09:16:52;;;;;;;0.52;0.52;;;27.10;99.90;;;;;;5068129;28;20163;-75
2021/09/16 09:19:21;;;;;;;2.25;1.02;;;27.90;99.90;;;;;;5068011;28;20160;-75
2021/09/16 09:21:47;;;;;;;0.20;0.20;;;27.90;99.90;;;;;;5049936;28;20168;-75
2021/09/16 09:24:40;;;;;;;0.38;0.38;;;28.60;99.90;;;;;;5067743;28;20196;-75
2021/09/16 09:27:26;;;;;;;0.30;0.30;;;29.10;99.90;;;;;;5049351;28;20172;-75
2021/09/16 09:30:22;;;;;;;0.40;0.40;;;29.00;99.90;;;;;;5067594;28;20187;-75
2021/09/16 09:32:57;;;;;;;0.68;0.68;;;28.20;99.90;;;;;;5067390;28;20219;-75
2021/09/16 09:35:31;;;;;;;0.57;0.57;;;28.30;99.90;;;;;;5049456;28;20294;-75
2021/09/16 09:38:01;;;;;;;0.57;0.57;;;29.00;99.90;;;;;;5049578;28;20161;-76
2021/09/16 09:40:29;;;;;;;0.60;0.60;;;29.10;99.90;;;;;;5047841;28;20227;-75
2021/09/16 09:43:15;;;;;;;0.60;0.60;;;30.00;99.90;;;;;;5029803;28;20160;-75
2021/09/16 09:46:04;;;;;;;1.75;0.60;;;30.30;99.90;;;;;;5047750;28;20161;-75
2021/09/16 09:48:32;;;;;;;2.72;0.40;;;29.70;99.90;;;;;;5047596;28;20153;-75
2021/09/16 09:50:59;;;;;;;0.40;0.40;;;29.30;99.90;;;;;;5047581;28;20217;-75
2021/09/16 09:53:25;;;;;;;1.80;0.38;;;29.90;99.90;;;;;;5045398;28;20656;-76
2021/09/16 09:55:51;;;;;;;0.75;0.60;;;29.40;99.90;;;;;;5067472;28;20160;-76
2021/09/16 09:58:35;;;;;;;1.08;0.50;;;29.10;99.90;;;;;;5067707;28;20210;-75
2021/09/16 10:01:26;;;;;;;1.23;1.00;;;29.30;99.90;;;;;;5067487;28;20171;-77
2021/09/16 10:03:52;;;;;;;1.52;0.63;;;29.20;99.90;;;;;;5049222;28;20669;-74
2021/09/16 10:06:18;;;;;;;0.45;0.45;;;28.30;99.90;;;;;;5049565;28;20176;-75
2021/09/16 10:09:04;;;;;;;0.50;0.50;;;28.00;99.90;;;;;;5049323;28;20172;-75
2021/09/16 10:11:45;;;;;;;0.65;0.65;;;28.20;99.90;;;;;;5067312;28;20255;-74
2021/09/16 10:14:12;;;;;;;0.63;0.63;;;27.80;99.90;;;;;;5067044;28;20249;-77
2021/09/16 10:16:39;;;;;;;0.55;0.45;;;27.40;99.90;;;;;;5067377;28;20156;-78
2021/09/16 10:19:05;;;;;;;1.10;1.08;;;27.50;99.90;;;;;;5067306;28;20152;-78
2021/09/16 10:21:32;;;;;;;1.23;1.13;;;27.70;99.90;;;;;;5049182;28;20172;-78
2021/09/16 10:24:00;;;;;;;0.73;0.73;;;27.60;99.90;;;;;;5049317;28;20287;-79
2021/09/16 10:26:43;;;;;;;0.20;0.20;;;27.80;99.90;;;;;;5067302;28;20748;-79
2021/09/16 10:29:27;;;;;;;0.65;0.65;;;27.90;99.90;;;;;;5067416;28;20223;-78
2021/09/16 10:32:19;;;;;;;2.05;1.20;;;27.20;99.90;;;;;;5067263;28;20176;-79
2021/09/16 10:34:56;;;;;;;3.63;0.70;;;26.30;99.90;;;;;;5049017;28;20207;-78
2021/09/16 10:37:23;;;;;;;1.67;0.90;;;26.30;99.90;;;;;;5067240;28;20568;-78
2021/09/16 10:39:51;;;;;;;1.17;0.55;;;26.10;99.90;;;;;;5067155;28;20163;-78
2021/09/16 10:42:18;;;;;;;0.80;0.80;;;26.00;99.90;;;;;;5067127;28;20168;-78
2021/09/16 10:44:45;;;;;;;0.68;0.68;;;25.80;99.90;;;;;;5069812;28;20192;-77
2021/09/16 10:47:22;;;;;;;0.68;0.68;;;25.50;99.90;;;;;;5052907;28;20172;-77
2021/09/16 10:49:50;;;;;;;28.67;1.48;;;25.60;99.90;;;;;;5070598;28;20223;-77
2021/09/16 10:52:23;;;;;;;0.52;0.52;;;25.80;99.90;;;;;;5070793;28;20237;-74
2021/09/16 10:54:56;;;;;;;0.73;0.47;;;26.10;99.90;;;;;;5070582;28;20657;-75
2021/09/16 10:57:28;;;;;;;1.60;1.38;;;26.20;99.90;;;;;;5070798;28;20164;-76
2021/09/16 10:59:54;;;;;;;0.85;0.68;;;26.10;99.90;;;;;;5070812;28;20223;-75
2021/09/16 11:02:24;;;;;;;1.13;0.68;;;26.00;99.90;;;;;;5070664;28;20203;-74
2021/09/16 11:04:58;;;;;;;1.02;0.70;;;26.20;99.90;;;;;;5070323;28;20203;-77
2021/09/16 11:07:39;;;;;;;0.60;0.60;;;26.80;99.90;;;;;;5052626;28;20175;-76
2021/09/16 11:10:19;;;;;;;1.05;0.77;;;27.10;99.90;;;;;;5070476;28;20244;-75
2021/09/16 11:12:47;;;;;;;2.92;1.33;;;26.80;99.90;;;;;;5052400;28;20318;-76
2021/09/16 11:15:23;;;;;;;1.60;1.10;;;26.70;99.90;;;;;;5070362;28;20297;-75
2021/09/16 11:17:49;;;;;;;0.10;0.10;;;26.60;99.90;;;;;;5070341;28;20164;-75
2021/09/16 11:20:15;;;;;;;0.90;0.90;;;26.70;99.90;;;;;;5070236;28;20220;-75
2021/09/16 11:22:41;;;;;;;1.58;1.48;;;26.50;99.90;;;;;;5070173;28;20149;-74
2021/09/16 11:25:09;;;;;;;6.70;1.20;;;26.90;99.90;;;;;;5070032;28;20203;-75
2021/09/16 11:27:39;;;;;;;0.98;0.80;;;27.10;99.90;;;;;;5070022;28;20172;-75
2021/09/16 11:30:13;;;;;;;7.18;0.90;;;27.60;99.90;;;;;;5070159;28;20156;-75
2021/09/16 11:32:43;;;;;;;0.60;0.60;;;27.70;99.90;;;;;;5069925;28;20611;-75
2021/09/16 11:35:17;;;;;;;0.50;0.50;;;27.80;99.90;;;;;;5051816;28;20207;-75
2021/09/16 11:37:51;;;;;;;2.05;1.27;;;28.00;99.90;;;;;;5051956;28;20171;-75
2021/09/16 11:40:22;;;;;;;0.80;0.80;;;27.40;99.90;;;;;;5051523;28;20641;-75
2021/09/16 11:42:53;;;;;;;3.13;1.85;;;27.70;99.90;;;;;;5069731;28;20198;-74
2021/09/16 11:45:22;;;;;;;1.38;1.27;;;27.30;99.90;;;;;;5069727;28;20287;-75
2021/09/16 11:48:10;;;;;;;1.98;1.10;;;27.50;99.90;;;;;;5051556;28;20235;-75
2021/09/16 11:50:47;;;;;;;8.75;2.92;;;28.70;99.90;;;;;;5051875;28;20227;-75
2021/09/16 11:53:22;;;;;;;1.23;1.00;;;28.50;99.90;;;;;;5075225;28;20179;-74
2021/09/16 11:55:51;;;;;;;1.42;1.30;;;28.20;99.90;;;;;;5089469;28;20155;-75
2021/09/16 11:58:20;;;;;;;3.55;1.95;;;27.90;99.90;;;;;;5086386;28;20685;-78
2021/09/16 12:00:54;;;;;;;2.30;2.00;;;27.30;99.90;;;;;;5068255;28;20184;-76
2021/09/16 12:03:31;;;;;;;1.50;1.40;;;26.70;99.90;;;;;;5051429;28;20167;-76
2021/09/16 12:06:00;;;;;;;1.23;1.13;;;26.40;99.90;;;;;;5051244;28;20169;-77
2021/09/16 12:08:34;;;;;;;9.13;1.15;;;26.00;99.90;;;;;;5070167;28;20196;-77
2021/09/16 12:11:05;;;;;;;1.52;1.25;;;25.90;99.90;;;;;;5069429;28;20163;-76
2021/09/16 12:13:38;;;;;;;2.65;1.45;;;26.00;99.90;;;;;;5051374;28;20196;-75
2021/09/16 12:16:05;;;;;;;4.07;1.55;;;26.40;99.90;;;;;;5051236;28;20230;-76
2021/09/16 12:18:34;;;;;;;1.45;1.35;;;26.50;99.90;;;;;;5069176;28;20198;-76
2021/09/16 12:21:05;;;;;;;6.60;2.22;;;26.50;99.90;;;;;;5069357;28;20184;-76
2021/09/16 12:23:31;;;;;;;1.00;0.77;;;26.20;99.90;;;;;;5051059;28;20217;-75
2021/09/16 12:26:01;;;;;;;3.00;0.98;;;26.40;99.90;;;;;;5069200;28;20237;-77
2021/09/16 12:28:29;;;;;;;1.48;1.08;;;26.30;99.90;;;;;;5050714;28;20192;-76
2021/09/16 12:31:04;;;;;;;7.00;1.42;;;26.10;99.90;;;;;;5069088;28;20152;-78
2021/09/16 12:33:40;;;;;;;1.42;1.33;;;25.90;99.90;;;;;;5048693;28;20207;-75
2021/09/16 12:36:27;;;;;;;2.40;1.33;;;26.00;99.90;;;;;;5072360;28;20171;-75
2021/09/16 12:38:55;;;;;;;1.20;1.10;;;26.30;99.90;;;;;;5081879;28;20194;-76
2021/09/16 12:41:22;;;;;;;1.17;1.05;;;26.10;99.90;;;;;;5068958;28;20178;-76
2021/09/16 12:43:57;;;;;;;1.02;0.93;;;26.00;99.90;;;;;;5068598;28;20222;-76
2021/09/16 12:46:25;;;;;;;0.85;0.80;;;25.90;99.90;;;;;;5050591;28;20175;-75
2021/09/16 12:48:51;;;;;;;1.23;1.13;;;25.60;99.90;;;;;;5068388;28;20206;-76